Reece City, Alabama
Current Conditions -  °F | °C
As of 4:15 PM on Wednesday 28 Jan 2015 (Local Time) from KGAD Reporting Station
Clear Clear  
Wind Chill: 12°   Ceiling: Unl
Heat Index: 12°   Visibility: 10mi
Dew Point: -7°   Wind: 0mph
Humidity: 26%   Direction: NA
Pressure: 30.25"   Gusts: NA
Location:  34.0771°N, 86.0689°W
Report Text: KGAD 282215Z 00000KT 10SM CLR 12/M07 A3025 RMK AO1
Loading
Personal Weather Stations






























Interactive Weather Map New forecast layout! Learn more

10-Day Weather Forecast

Advertisements
Track Severe Weather on mobile